Terminal Aerodrome Forecast
Issued by NWS Charleston, WV

Home | Current Version | Previous Version | Text Only | Print | Product List | Glossary On
Versions: 1 2 3 4 5 6 7 8 9 10 11 12 13 14 15 16 17 18 19 20 21 22 23
571
FTUS41 KRLX 291457 AAA
TAFPKB
TAF AMD
KPKB 291457Z 2915/3012 VRB03KT P6SM BKN200
     FM291600 VRB04KT P6SM VCTS BKN060CB
     FM291800 00000KT P6SM BKN150=

USA.gov is the U.S. government's official web portal to all federal, state and local government web resources and services.